首页
METAR-TAF:

METAR-TAF

机场 :

东京国际机场, 日本

東京國際機場

纬度: 35-33N, 经度: 139-47E, 海拔: 5米

当前天气观测

该预报发布于22分钟前的22:00 UTC
风速17节,风向
温度 17°C
湿度 55%
气压 1007 hPa
能见度10公里或以上
少量云层高于1500英尺
散云

METAR: RJTT 252200Z 35017KT 9999 FEW015 SCT/// 17/08 Q1007 TEMPO 34018G28KT RMK 1CU015 A2976

时间: 07:22 (22:22 UTC)

预报

该预报发布于5小时和13分钟前的17:09 UTC
预报有效从25日的 18点(UTC)到 27日的 00点(UTC)
风速12节,风向
能见度10公里或以上
少量云层高于1000英尺
多云层高于6000英尺
短暂存在
从 25日的 20点(UTC)到 26日的 00点(UTC)
风速20节,风向北转西北,有时为30节阵风
成为
从 26日的 02点(UTC)到 26日的 04点(UTC)
风速10节,风向
成为
从 26日的 06点(UTC)到 26日的 09点(UTC)
风速10节,风向
成为
从 26日的 18点(UTC)到 26日的 21点(UTC)
风速5节,风向

TAF: RJTT 251709Z 2518/2700 36012KT 9999 FEW010 BKN060 TEMPO 2520/2600 34020G30KT BECMG 2602/2604 10010KT BECMG 2606/2609 18010KT BECMG 2618/2621 09005KT

超过4000个机场的气象观测和天气预报(METAR&TAF报告)。

可查询的气象台以黄色和红色小点在地图上表示。

将鼠标移到小点上方,可查看气象台名称。

然后点击查看天气观测和预报。

如需切换地图:点击带黑十字的绿色按钮放大地图;点击带横线的绿色按钮缩小地图;或者点击绿色箭头查看邻近地区的地图。


METAR-TAF: